Terminal Aerodrome Forecast
Issued by NWS Grand Forks, ND

Home | Current Version | Previous Version | Text Only | Print | Product List | Glossary On
Versions: 1 2 3 4 5 6 7 8 9 10 11 12 13 14 15 16 17 18 19 20
127
FTUS43 KFGF 252320
TAFGFK
TAF
KGFK 252320Z 2600/2624 35008KT P6SM OVC024
     FM260800 35006KT P6SM OVC015
     FM261100 32008KT P6SM OVC010
     FM262100 31008KT P6SM BKN020
     FM262300 32006KT P6SM BKN045=

USA.gov is the U.S. government's official web portal to all federal, state and local government web resources and services.